To NAV CANADA Home Page Login to a new session Search on AWWS site Disclaimer Vers la page française équivalente Tips FAQ What's new on the site To the Forecasts and Observations / NOTAM section To "File a Flight Plan" website Publications and other links Update of the User's profile FIC Telephone Numbers My Weather Data Folder Route Weather Data Regional Weather Data Local Weather Data To the Forecasts and Observations / NOTAM section
Request Generated 03/21/2019 at 01:29:41 UTC . Weather information available at that time is displayed.

METAR/TAF

BATHURST/NB    (show WxCam)

METAR CZBF 210100Z AUTO 21004KT 9SM CLR M00/M10 A3016 RMK SLP218=
METAR CZBF 210000Z AUTO 19006KT 9SM CLR 01/M09 A3015 RMK SLP216=
METAR CZBF 202300Z AUTO 24007KT 9SM CLR 02/M08 A3014 RMK SLP213=

TAF CZBF 201945Z 2020/2103 25015G25KT P6SM SKC
BECMG 2023/2101 25012KT
RMK FCST BASED ON AUTO OBS. NXT FCST WILL BE ISSUED AT 210845Z=
Your time UTC time
Weather data provided by Environment Canada and NAV CANADA